Terminal Aerodrome Forecast
Issued by NWS Blacksburg, VA

Current Version | Previous Version | Graphics & Text | Print | Product List | Glossary On
Versions: 1 2 3 4 5 6 7 8 9 10 11 12
000
FTUS41 KRNK 192320
TAFBLF
TAF
KBLF 192320Z 2000/2024 27007KT P6SM SCT080
     FM201200 VRB03KT P6SM FEW250
     FM201400 28007KT P6SM FEW250=

USA.gov is the U.S. government's official web portal to all federal, state and local government web resources and services.